sensor_id;sensor_type;location;lat;lon;timestamp;P1;durP1;ratioP1;P2;durP2;ratioP2
51224;SDS011;37298;42.688;23.312;2023-05-17T00:00:32;24.83;;;14.90;;
51224;SDS011;37298;42.688;23.312;2023-05-17T00:02:59;24.42;;;15.60;;
51224;SDS011;37298;42.688;23.312;2023-05-17T00:05:26;22.63;;;15.18;;
51224;SDS011;37298;42.688;23.312;2023-05-17T00:07:53;21.85;;;14.80;;
51224;SDS011;37298;42.688;23.312;2023-05-17T00:10:20;24.90;;;16.00;;
51224;SDS011;37298;42.688;23.312;2023-05-17T00:12:47;21.90;;;14.57;;
51224;SDS011;37298;42.688;23.312;2023-05-17T00:15:15;22.92;;;13.63;;
51224;SDS011;37298;42.688;23.312;2023-05-17T00:17:42;23.55;;;14.50;;
51224;SDS011;37298;42.688;23.312;2023-05-17T00:20:09;25.52;;;14.52;;
51224;SDS011;37298;42.688;23.312;2023-05-17T00:22:36;24.20;;;14.48;;
51224;SDS011;37298;42.688;23.312;2023-05-17T00:27:31;23.90;;;13.90;;
51224;SDS011;37298;42.688;23.312;2023-05-17T00:29:58;22.45;;;13.52;;
51224;SDS011;37298;42.688;23.312;2023-05-17T00:32:26;23.67;;;13.82;;
51224;SDS011;37298;42.688;23.312;2023-05-17T00:34:54;26.13;;;13.10;;
51224;SDS011;37298;42.688;23.312;2023-05-17T00:37:21;23.13;;;13.68;;
51224;SDS011;37298;42.688;23.312;2023-05-17T00:39:48;21.58;;;13.55;;
51224;SDS011;37298;42.688;23.312;2023-05-17T00:42:15;20.88;;;12.90;;
51224;SDS011;37298;42.688;23.312;2023-05-17T00:44:42;20.42;;;12.55;;
51224;SDS011;37298;42.688;23.312;2023-05-17T00:47:09;33.33;;;19.00;;
51224;SDS011;37298;42.688;23.312;2023-05-17T00:49:37;29.20;;;14.60;;
51224;SDS011;37298;42.688;23.312;2023-05-17T00:52:04;18.30;;;12.63;;
51224;SDS011;37298;42.688;23.312;2023-05-17T00:54:31;18.38;;;12.32;;
51224;SDS011;37298;42.688;23.312;2023-05-17T00:56:59;25.00;;;13.10;;
51224;SDS011;37298;42.688;23.312;2023-05-17T00:59:26;19.60;;;13.57;;
51224;SDS011;37298;42.688;23.312;2023-05-17T01:01:53;24.80;;;11.93;;
51224;SDS011;37298;42.688;23.312;2023-05-17T01:04:21;21.25;;;10.85;;
51224;SDS011;37298;42.688;23.312;2023-05-17T01:06:49;15.02;;;9.90;;
51224;SDS011;37298;42.688;23.312;2023-05-17T01:09:16;15.25;;;9.20;;
51224;SDS011;37298;42.688;23.312;2023-05-17T01:11:45;18.85;;;10.88;;
51224;SDS011;37298;42.688;23.312;2023-05-17T01:14:18;20.58;;;9.85;;
51224;SDS011;37298;42.688;23.312;2023-05-17T01:16:50;14.30;;;8.68;;
51224;SDS011;37298;42.688;23.312;2023-05-17T01:19:29;12.40;;;7.95;;
51224;SDS011;37298;42.688;23.312;2023-05-17T01:22:07;13.23;;;8.00;;
51224;SDS011;37298;42.688;23.312;2023-05-17T01:24:38;23.02;;;10.65;;
51224;SDS011;37298;42.688;23.312;2023-05-17T01:27:10;18.65;;;9.35;;
51224;SDS011;37298;42.688;23.312;2023-05-17T01:29:38;15.35;;;9.80;;
51224;SDS011;37298;42.688;23.312;2023-05-17T01:32:06;14.27;;;8.55;;
51224;SDS011;37298;42.688;23.312;2023-05-17T01:34:34;14.30;;;8.35;;
51224;SDS011;37298;42.688;23.312;2023-05-17T01:37:02;21.08;;;7.38;;
51224;SDS011;37298;42.688;23.312;2023-05-17T01:39:29;13.43;;;8.35;;
51224;SDS011;37298;42.688;23.312;2023-05-17T01:41:57;13.18;;;8.02;;
51224;SDS011;37298;42.688;23.312;2023-05-17T01:44:29;14.98;;;8.27;;
51224;SDS011;37298;42.688;23.312;2023-05-17T01:46:59;16.15;;;8.13;;
51224;SDS011;37298;42.688;23.312;2023-05-17T01:49:28;11.38;;;7.63;;
51224;SDS011;37298;42.688;23.312;2023-05-17T01:51:56;11.30;;;7.53;;
51224;SDS011;37298;42.688;23.312;2023-05-17T01:54:26;16.25;;;8.60;;
51224;SDS011;37298;42.688;23.312;2023-05-17T01:56:57;13.50;;;7.45;;
51224;SDS011;37298;42.688;23.312;2023-05-17T01:59:24;16.60;;;7.93;;
51224;SDS011;37298;42.688;23.312;2023-05-17T02:01:54;16.33;;;9.00;;
51224;SDS011;37298;42.688;23.312;2023-05-17T02:04:22;15.25;;;9.27;;
51224;SDS011;37298;42.688;23.312;2023-05-17T02:06:49;20.02;;;10.10;;
51224;SDS011;37298;42.688;23.312;2023-05-17T02:09:16;15.05;;;9.95;;
51224;SDS011;37298;42.688;23.312;2023-05-17T02:11:43;16.50;;;10.82;;
51224;SDS011;37298;42.688;23.312;2023-05-17T02:14:10;18.65;;;10.02;;
51224;SDS011;37298;42.688;23.312;2023-05-17T02:16:37;16.75;;;9.65;;
51224;SDS011;37298;42.688;23.312;2023-05-17T02:19:05;17.25;;;10.55;;
51224;SDS011;37298;42.688;23.312;2023-05-17T02:21:33;14.93;;;10.20;;
51224;SDS011;37298;42.688;23.312;2023-05-17T02:24:01;17.40;;;10.57;;
51224;SDS011;37298;42.688;23.312;2023-05-17T02:26:28;19.83;;;10.27;;
51224;SDS011;37298;42.688;23.312;2023-05-17T02:28:56;21.52;;;11.18;;
51224;SDS011;37298;42.688;23.312;2023-05-17T02:31:22;15.73;;;9.98;;
51224;SDS011;37298;42.688;23.312;2023-05-17T02:33:51;13.60;;;9.65;;
51224;SDS011;37298;42.688;23.312;2023-05-17T02:36:19;18.15;;;9.90;;
51224;SDS011;37298;42.688;23.312;2023-05-17T02:38:46;16.60;;;10.55;;
51224;SDS011;37298;42.688;23.312;2023-05-17T02:41:13;14.43;;;10.23;;
51224;SDS011;37298;42.688;23.312;2023-05-17T02:43:40;16.52;;;9.52;;
51224;SDS011;37298;42.688;23.312;2023-05-17T02:46:06;16.33;;;9.50;;
51224;SDS011;37298;42.688;23.312;2023-05-17T02:48:33;16.20;;;8.68;;
51224;SDS011;37298;42.688;23.312;2023-05-17T02:51:00;13.65;;;8.45;;
51224;SDS011;37298;42.688;23.312;2023-05-17T02:53:29;15.27;;;7.72;;
51224;SDS011;37298;42.688;23.312;2023-05-17T02:55:55;14.48;;;9.45;;
51224;SDS011;37298;42.688;23.312;2023-05-17T02:58:23;13.88;;;7.63;;
51224;SDS011;37298;42.688;23.312;2023-05-17T03:00:50;16.35;;;6.75;;
51224;SDS011;37298;42.688;23.312;2023-05-17T03:03:17;11.05;;;7.15;;
51224;SDS011;37298;42.688;23.312;2023-05-17T03:05:44;10.55;;;5.72;;
51224;SDS011;37298;42.688;23.312;2023-05-17T03:08:11;11.25;;;5.90;;
51224;SDS011;37298;42.688;23.312;2023-05-17T03:10:40;13.15;;;6.07;;
51224;SDS011;37298;42.688;23.312;2023-05-17T03:13:08;15.23;;;6.68;;
51224;SDS011;37298;42.688;23.312;2023-05-17T03:15:38;10.68;;;6.00;;
51224;SDS011;37298;42.688;23.312;2023-05-17T03:18:04;14.73;;;7.70;;
51224;SDS011;37298;42.688;23.312;2023-05-17T03:20:32;14.00;;;6.68;;
51224;SDS011;37298;42.688;23.312;2023-05-17T03:22:59;13.77;;;7.05;;
51224;SDS011;37298;42.688;23.312;2023-05-17T03:25:26;15.90;;;7.10;;
51224;SDS011;37298;42.688;23.312;2023-05-17T03:27:54;12.52;;;7.63;;
51224;SDS011;37298;42.688;23.312;2023-05-17T03:30:21;12.05;;;6.88;;
51224;SDS011;37298;42.688;23.312;2023-05-17T03:32:48;12.35;;;7.80;;
51224;SDS011;37298;42.688;23.312;2023-05-17T03:35:15;10.77;;;6.88;;
51224;SDS011;37298;42.688;23.312;2023-05-17T03:37:46;14.80;;;8.25;;
51224;SDS011;37298;42.688;23.312;2023-05-17T03:40:13;10.82;;;6.47;;
51224;SDS011;37298;42.688;23.312;2023-05-17T03:42:40;15.63;;;8.35;;
51224;SDS011;37298;42.688;23.312;2023-05-17T03:45:09;15.00;;;7.82;;
51224;SDS011;37298;42.688;23.312;2023-05-17T03:47:37;17.38;;;8.48;;
51224;SDS011;37298;42.688;23.312;2023-05-17T03:50:04;11.90;;;7.03;;
51224;SDS011;37298;42.688;23.312;2023-05-17T03:52:32;19.30;;;9.37;;
51224;SDS011;37298;42.688;23.312;2023-05-17T03:54:59;10.63;;;7.57;;
51224;SDS011;37298;42.688;23.312;2023-05-17T03:57:26;15.02;;;7.70;;
51224;SDS011;37298;42.688;23.312;2023-05-17T03:59:53;15.00;;;8.20;;
51224;SDS011;37298;42.688;23.312;2023-05-17T04:02:22;12.50;;;7.60;;
51224;SDS011;37298;42.688;23.312;2023-05-17T04:04:49;14.15;;;8.07;;
51224;SDS011;37298;42.688;23.312;2023-05-17T04:07:18;11.10;;;7.43;;
51224;SDS011;37298;42.688;23.312;2023-05-17T04:09:45;16.08;;;7.75;;
51224;SDS011;37298;42.688;23.312;2023-05-17T04:12:12;15.90;;;8.35;;
51224;SDS011;37298;42.688;23.312;2023-05-17T04:14:39;12.30;;;7.82;;
51224;SDS011;37298;42.688;23.312;2023-05-17T04:17:06;14.32;;;7.95;;
51224;SDS011;37298;42.688;23.312;2023-05-17T04:19:35;13.13;;;7.88;;
51224;SDS011;37298;42.688;23.312;2023-05-17T04:22:01;13.70;;;7.50;;
51224;SDS011;37298;42.688;23.312;2023-05-17T04:24:29;14.98;;;7.20;;
51224;SDS011;37298;42.688;23.312;2023-05-17T04:26:56;16.45;;;7.97;;
51224;SDS011;37298;42.688;23.312;2023-05-17T04:29:24;19.83;;;9.55;;
51224;SDS011;37298;42.688;23.312;2023-05-17T04:31:51;17.67;;;10.20;;
51224;SDS011;37298;42.688;23.312;2023-05-17T04:34:18;17.67;;;10.13;;
51224;SDS011;37298;42.688;23.312;2023-05-17T04:36:48;17.90;;;9.57;;
51224;SDS011;37298;42.688;23.312;2023-05-17T04:39:15;18.40;;;9.48;;
51224;SDS011;37298;42.688;23.312;2023-05-17T04:41:43;20.45;;;9.68;;
51224;SDS011;37298;42.688;23.312;2023-05-17T04:44:11;16.75;;;10.85;;
51224;SDS011;37298;42.688;23.312;2023-05-17T04:46:38;13.70;;;8.35;;
51224;SDS011;37298;42.688;23.312;2023-05-17T04:49:25;15.23;;;9.88;;
51224;SDS011;37298;42.688;23.312;2023-05-17T04:51:58;16.42;;;9.95;;
51224;SDS011;37298;42.688;23.312;2023-05-17T04:54:25;17.58;;;9.10;;
51224;SDS011;37298;42.688;23.312;2023-05-17T04:56:52;21.55;;;10.27;;
51224;SDS011;37298;42.688;23.312;2023-05-17T04:59:39;14.02;;;8.80;;
51224;SDS011;37298;42.688;23.312;2023-05-17T05:02:06;19.38;;;8.88;;
51224;SDS011;37298;42.688;23.312;2023-05-17T05:04:35;20.05;;;9.88;;
51224;SDS011;37298;42.688;23.312;2023-05-17T05:07:03;12.90;;;9.52;;
51224;SDS011;37298;42.688;23.312;2023-05-17T05:09:31;18.40;;;9.77;;
51224;SDS011;37298;42.688;23.312;2023-05-17T05:11:58;16.17;;;9.75;;
51224;SDS011;37298;42.688;23.312;2023-05-17T05:14:24;24.67;;;10.25;;
51224;SDS011;37298;42.688;23.312;2023-05-17T05:16:52;17.52;;;8.57;;
51224;SDS011;37298;42.688;23.312;2023-05-17T05:19:20;16.55;;;9.10;;
51224;SDS011;37298;42.688;23.312;2023-05-17T05:24:17;25.27;;;10.20;;
51224;SDS011;37298;42.688;23.312;2023-05-17T05:26:44;15.82;;;10.07;;
51224;SDS011;37298;42.688;23.312;2023-05-17T05:29:12;19.80;;;9.18;;
51224;SDS011;37298;42.688;23.312;2023-05-17T05:31:39;20.58;;;9.48;;
51224;SDS011;37298;42.688;23.312;2023-05-17T05:34:07;15.68;;;8.40;;
51224;SDS011;37298;42.688;23.312;2023-05-17T05:36:34;15.73;;;9.23;;
51224;SDS011;37298;42.688;23.312;2023-05-17T05:39:01;17.92;;;8.52;;
51224;SDS011;37298;42.688;23.312;2023-05-17T05:43:58;14.50;;;8.48;;
51224;SDS011;37298;42.688;23.312;2023-05-17T05:46:25;16.17;;;8.50;;
51224;SDS011;37298;42.688;23.312;2023-05-17T05:48:52;12.60;;;8.15;;
51224;SDS011;37298;42.688;23.312;2023-05-17T05:51:20;12.63;;;8.40;;
51224;SDS011;37298;42.688;23.312;2023-05-17T05:53:47;14.70;;;8.90;;
51224;SDS011;37298;42.688;23.312;2023-05-17T05:56:13;22.20;;;9.60;;
51224;SDS011;37298;42.688;23.312;2023-05-17T05:58:40;11.57;;;7.18;;
51224;SDS011;37298;42.688;23.312;2023-05-17T06:01:09;12.40;;;7.38;;
51224;SDS011;37298;42.688;23.312;2023-05-17T06:03:36;14.32;;;7.63;;
51224;SDS011;37298;42.688;23.312;2023-05-17T06:06:03;13.93;;;8.93;;
51224;SDS011;37298;42.688;23.312;2023-05-17T06:08:31;12.52;;;7.57;;
51224;SDS011;37298;42.688;23.312;2023-05-17T06:10:57;16.10;;;7.95;;
51224;SDS011;37298;42.688;23.312;2023-05-17T06:13:24;13.32;;;7.32;;
51224;SDS011;37298;42.688;23.312;2023-05-17T06:15:52;10.95;;;6.60;;
51224;SDS011;37298;42.688;23.312;2023-05-17T06:18:20;16.55;;;7.13;;
51224;SDS011;37298;42.688;23.312;2023-05-17T06:20:47;11.07;;;7.53;;
51224;SDS011;37298;42.688;23.312;2023-05-17T06:23:14;12.32;;;7.25;;
51224;SDS011;37298;42.688;23.312;2023-05-17T06:25:41;16.38;;;7.72;;
51224;SDS011;37298;42.688;23.312;2023-05-17T06:28:08;11.63;;;6.80;;
51224;SDS011;37298;42.688;23.312;2023-05-17T06:30:35;11.80;;;6.82;;
51224;SDS011;37298;42.688;23.312;2023-05-17T06:33:02;12.48;;;6.90;;
51224;SDS011;37298;42.688;23.312;2023-05-17T06:35:30;12.90;;;6.25;;
51224;SDS011;37298;42.688;23.312;2023-05-17T06:37:57;15.73;;;5.85;;
51224;SDS011;37298;42.688;23.312;2023-05-17T06:40:24;9.75;;;6.50;;
51224;SDS011;37298;42.688;23.312;2023-05-17T06:42:51;11.25;;;5.55;;
51224;SDS011;37298;42.688;23.312;2023-05-17T06:45:17;14.43;;;6.80;;
51224;SDS011;37298;42.688;23.312;2023-05-17T06:47:44;9.68;;;5.63;;
51224;SDS011;37298;42.688;23.312;2023-05-17T06:50:11;9.55;;;5.72;;
51224;SDS011;37298;42.688;23.312;2023-05-17T06:52:39;9.35;;;5.57;;
51224;SDS011;37298;42.688;23.312;2023-05-17T06:55:06;11.15;;;6.07;;
51224;SDS011;37298;42.688;23.312;2023-05-17T06:57:33;12.18;;;5.03;;
51224;SDS011;37298;42.688;23.312;2023-05-17T07:00:00;10.00;;;5.85;;
51224;SDS011;37298;42.688;23.312;2023-05-17T07:02:28;13.05;;;5.82;;
51224;SDS011;37298;42.688;23.312;2023-05-17T07:04:57;7.78;;;5.47;;
51224;SDS011;37298;42.688;23.312;2023-05-17T07:07:24;13.27;;;5.82;;
51224;SDS011;37298;42.688;23.312;2023-05-17T07:09:52;12.50;;;6.22;;
51224;SDS011;37298;42.688;23.312;2023-05-17T07:12:19;13.10;;;5.15;;
51224;SDS011;37298;42.688;23.312;2023-05-17T07:14:45;9.98;;;5.55;;
51224;SDS011;37298;42.688;23.312;2023-05-17T07:17:12;9.50;;;5.68;;
51224;SDS011;37298;42.688;23.312;2023-05-17T07:19:39;11.85;;;5.55;;
51224;SDS011;37298;42.688;23.312;2023-05-17T07:22:06;10.57;;;6.20;;
51224;SDS011;37298;42.688;23.312;2023-05-17T07:24:33;10.13;;;6.05;;
51224;SDS011;37298;42.688;23.312;2023-05-17T07:27:05;10.30;;;6.00;;
51224;SDS011;37298;42.688;23.312;2023-05-17T07:29:32;8.35;;;5.32;;
51224;SDS011;37298;42.688;23.312;2023-05-17T07:31:58;12.30;;;5.63;;
51224;SDS011;37298;42.688;23.312;2023-05-17T07:34:28;12.82;;;6.30;;
51224;SDS011;37298;42.688;23.312;2023-05-17T07:36:55;10.68;;;5.47;;
51224;SDS011;37298;42.688;23.312;2023-05-17T07:39:22;10.63;;;5.97;;
51224;SDS011;37298;42.688;23.312;2023-05-17T07:41:49;10.90;;;5.65;;
51224;SDS011;37298;42.688;23.312;2023-05-17T07:44:19;9.57;;;5.22;;
51224;SDS011;37298;42.688;23.312;2023-05-17T07:46:47;10.50;;;5.18;;
51224;SDS011;37298;42.688;23.312;2023-05-17T07:49:14;11.35;;;5.20;;
51224;SDS011;37298;42.688;23.312;2023-05-17T07:51:41;8.82;;;5.15;;
51224;SDS011;37298;42.688;23.312;2023-05-17T07:54:08;11.43;;;5.95;;
51224;SDS011;37298;42.688;23.312;2023-05-17T07:56:35;11.57;;;6.22;;
51224;SDS011;37298;42.688;23.312;2023-05-17T07:59:01;13.85;;;7.10;;
51224;SDS011;37298;42.688;23.312;2023-05-17T08:01:30;7.97;;;5.20;;
51224;SDS011;37298;42.688;23.312;2023-05-17T08:03:56;9.65;;;5.78;;
51224;SDS011;37298;42.688;23.312;2023-05-17T08:06:23;10.82;;;6.63;;
51224;SDS011;37298;42.688;23.312;2023-05-17T08:08:50;13.63;;;7.22;;
51224;SDS011;37298;42.688;23.312;2023-05-17T08:11:17;12.63;;;6.30;;
51224;SDS011;37298;42.688;23.312;2023-05-17T08:13:44;12.57;;;6.78;;
51224;SDS011;37298;42.688;23.312;2023-05-17T08:16:11;11.05;;;6.38;;
51224;SDS011;37298;42.688;23.312;2023-05-17T08:18:39;12.45;;;6.28;;
51224;SDS011;37298;42.688;23.312;2023-05-17T08:21:06;9.45;;;5.10;;
51224;SDS011;37298;42.688;23.312;2023-05-17T08:23:34;10.57;;;6.13;;
51224;SDS011;37298;42.688;23.312;2023-05-17T08:26:01;12.65;;;6.78;;
51224;SDS011;37298;42.688;23.312;2023-05-17T08:28:28;9.50;;;5.75;;
51224;SDS011;37298;42.688;23.312;2023-05-17T08:30:54;13.50;;;6.85;;
51224;SDS011;37298;42.688;23.312;2023-05-17T08:33:21;9.43;;;6.13;;
51224;SDS011;37298;42.688;23.312;2023-05-17T08:35:52;11.13;;;6.25;;
51224;SDS011;37298;42.688;23.312;2023-05-17T08:38:19;13.00;;;6.55;;
51224;SDS011;37298;42.688;23.312;2023-05-17T08:40:51;12.43;;;6.55;;
51224;SDS011;37298;42.688;23.312;2023-05-17T08:43:18;15.75;;;6.35;;
51224;SDS011;37298;42.688;23.312;2023-05-17T08:45:46;10.73;;;6.40;;
51224;SDS011;37298;42.688;23.312;2023-05-17T08:48:14;12.65;;;6.03;;
51224;SDS011;37298;42.688;23.312;2023-05-17T08:50:41;9.20;;;5.90;;
51224;SDS011;37298;42.688;23.312;2023-05-17T08:53:11;9.80;;;5.68;;
51224;SDS011;37298;42.688;23.312;2023-05-17T08:58:05;9.25;;;5.22;;
51224;SDS011;37298;42.688;23.312;2023-05-17T09:00:32;9.82;;;5.75;;
51224;SDS011;37298;42.688;23.312;2023-05-17T09:02:59;12.35;;;5.20;;
51224;SDS011;37298;42.688;23.312;2023-05-17T09:05:26;8.57;;;5.38;;
51224;SDS011;37298;42.688;23.312;2023-05-17T09:07:53;15.00;;;6.32;;
51224;SDS011;37298;42.688;23.312;2023-05-17T09:10:23;14.63;;;6.18;;
51224;SDS011;37298;42.688;23.312;2023-05-17T09:12:50;10.95;;;6.00;;
51224;SDS011;37298;42.688;23.312;2023-05-17T09:15:18;10.38;;;6.10;;
51224;SDS011;37298;42.688;23.312;2023-05-17T09:17:49;19.25;;;8.13;;
51224;SDS011;37298;42.688;23.312;2023-05-17T09:20:21;13.05;;;6.57;;
51224;SDS011;37298;42.688;23.312;2023-05-17T09:22:48;14.02;;;8.93;;
51224;SDS011;37298;42.688;23.312;2023-05-17T09:25:17;13.43;;;7.38;;
51224;SDS011;37298;42.688;23.312;2023-05-17T09:27:46;11.18;;;6.75;;
51224;SDS011;37298;42.688;23.312;2023-05-17T09:30:13;8.88;;;5.47;;
51224;SDS011;37298;42.688;23.312;2023-05-17T09:32:42;11.45;;;6.65;;
51224;SDS011;37298;42.688;23.312;2023-05-17T09:35:09;10.48;;;5.85;;
51224;SDS011;37298;42.688;23.312;2023-05-17T09:37:36;19.38;;;9.85;;
51224;SDS011;37298;42.688;23.312;2023-05-17T09:40:04;15.93;;;5.72;;
51224;SDS011;37298;42.688;23.312;2023-05-17T09:42:33;11.45;;;7.20;;
51224;SDS011;37298;42.688;23.312;2023-05-17T09:45:02;11.95;;;6.07;;
51224;SDS011;37298;42.688;23.312;2023-05-17T09:47:30;12.13;;;6.05;;
51224;SDS011;37298;42.688;23.312;2023-05-17T09:49:59;13.77;;;6.93;;
51224;SDS011;37298;42.688;23.312;2023-05-17T09:52:28;8.95;;;4.93;;
51224;SDS011;37298;42.688;23.312;2023-05-17T09:54:56;9.82;;;4.75;;
51224;SDS011;37298;42.688;23.312;2023-05-17T09:57:23;9.25;;;5.13;;
51224;SDS011;37298;42.688;23.312;2023-05-17T09:59:53;12.68;;;6.03;;
51224;SDS011;37298;42.688;23.312;2023-05-17T10:02:25;8.43;;;5.07;;
51224;SDS011;37298;42.688;23.312;2023-05-17T10:04:52;16.35;;;4.95;;
51224;SDS011;37298;42.688;23.312;2023-05-17T10:07:21;13.77;;;4.85;;
51224;SDS011;37298;42.688;23.312;2023-05-17T10:09:50;12.50;;;4.97;;
51224;SDS011;37298;42.688;23.312;2023-05-17T10:12:18;11.40;;;5.18;;
51224;SDS011;37298;42.688;23.312;2023-05-17T10:14:47;9.50;;;4.90;;
51224;SDS011;37298;42.688;23.312;2023-05-17T10:17:14;13.85;;;4.45;;
51224;SDS011;37298;42.688;23.312;2023-05-17T10:19:43;9.13;;;4.85;;
51224;SDS011;37298;42.688;23.312;2023-05-17T10:22:10;7.70;;;4.63;;
51224;SDS011;37298;42.688;23.312;2023-05-17T10:24:38;9.88;;;4.93;;
51224;SDS011;37298;42.688;23.312;2023-05-17T10:27:05;8.65;;;4.80;;
51224;SDS011;37298;42.688;23.312;2023-05-17T10:29:32;11.00;;;4.57;;
51224;SDS011;37298;42.688;23.312;2023-05-17T10:32:02;7.60;;;4.40;;
51224;SDS011;37298;42.688;23.312;2023-05-17T10:34:29;9.05;;;4.80;;
51224;SDS011;37298;42.688;23.312;2023-05-17T10:36:58;10.60;;;5.38;;
51224;SDS011;37298;42.688;23.312;2023-05-17T10:39:25;11.80;;;5.00;;
51224;SDS011;37298;42.688;23.312;2023-05-17T10:41:53;10.52;;;4.88;;
51224;SDS011;37298;42.688;23.312;2023-05-17T10:44:21;8.57;;;4.40;;
51224;SDS011;37298;42.688;23.312;2023-05-17T10:46:52;10.32;;;5.88;;
51224;SDS011;37298;42.688;23.312;2023-05-17T10:49:19;10.05;;;4.60;;
51224;SDS011;37298;42.688;23.312;2023-05-17T10:51:46;12.75;;;5.88;;
51224;SDS011;37298;42.688;23.312;2023-05-17T10:54:14;9.52;;;4.63;;
51224;SDS011;37298;42.688;23.312;2023-05-17T10:56:49;8.38;;;3.83;;
51224;SDS011;37298;42.688;23.312;2023-05-17T10:59:16;8.77;;;4.45;;
51224;SDS011;37298;42.688;23.312;2023-05-17T11:01:48;9.03;;;4.57;;
51224;SDS011;37298;42.688;23.312;2023-05-17T11:04:19;6.82;;;4.47;;
51224;SDS011;37298;42.688;23.312;2023-05-17T11:06:46;8.57;;;4.20;;
51224;SDS011;37298;42.688;23.312;2023-05-17T11:09:14;7.70;;;4.35;;
51224;SDS011;37298;42.688;23.312;2023-05-17T11:14:27;11.75;;;4.45;;
51224;SDS011;37298;42.688;23.312;2023-05-17T11:17:12;6.25;;;3.72;;
51224;SDS011;37298;42.688;23.312;2023-05-17T11:19:47;10.13;;;5.72;;
51224;SDS011;37298;42.688;23.312;2023-05-17T11:22:14;10.13;;;4.38;;
51224;SDS011;37298;42.688;23.312;2023-05-17T11:24:43;7.07;;;4.45;;
51224;SDS011;37298;42.688;23.312;2023-05-17T11:27:10;9.75;;;4.93;;
51224;SDS011;37298;42.688;23.312;2023-05-17T11:29:38;15.20;;;5.10;;
51224;SDS011;37298;42.688;23.312;2023-05-17T11:32:05;12.05;;;4.80;;
51224;SDS011;37298;42.688;23.312;2023-05-17T11:34:33;10.98;;;4.85;;
51224;SDS011;37298;42.688;23.312;2023-05-17T11:37:00;12.27;;;5.22;;
51224;SDS011;37298;42.688;23.312;2023-05-17T11:39:29;11.10;;;4.80;;
51224;SDS011;37298;42.688;23.312;2023-05-17T11:41:57;10.30;;;4.85;;
51224;SDS011;37298;42.688;23.312;2023-05-17T11:44:27;10.63;;;5.18;;
51224;SDS011;37298;42.688;23.312;2023-05-17T11:47:01;10.27;;;5.22;;
51224;SDS011;37298;42.688;23.312;2023-05-17T11:49:29;7.47;;;4.93;;
51224;SDS011;37298;42.688;23.312;2023-05-17T11:51:56;10.30;;;6.07;;
51224;SDS011;37298;42.688;23.312;2023-05-17T11:54:23;8.50;;;4.85;;
51224;SDS011;37298;42.688;23.312;2023-05-17T11:56:50;11.77;;;4.60;;
51224;SDS011;37298;42.688;23.312;2023-05-17T11:59:19;10.25;;;5.25;;
51224;SDS011;37298;42.688;23.312;2023-05-17T12:01:47;9.38;;;5.55;;
51224;SDS011;37298;42.688;23.312;2023-05-17T12:04:21;8.05;;;5.30;;
51224;SDS011;37298;42.688;23.312;2023-05-17T12:06:48;8.55;;;6.10;;
51224;SDS011;37298;42.688;23.312;2023-05-17T12:09:16;9.77;;;5.65;;
51224;SDS011;37298;42.688;23.312;2023-05-17T12:11:43;6.30;;;4.72;;
51224;SDS011;37298;42.688;23.312;2023-05-17T12:14:13;12.73;;;5.93;;
51224;SDS011;37298;42.688;23.312;2023-05-17T12:16:41;7.97;;;5.63;;
51224;SDS011;37298;42.688;23.312;2023-05-17T12:19:15;10.50;;;5.38;;
51224;SDS011;37298;42.688;23.312;2023-05-17T12:21:42;7.90;;;4.68;;
51224;SDS011;37298;42.688;23.312;2023-05-17T12:24:09;8.63;;;4.75;;
51224;SDS011;37298;42.688;23.312;2023-05-17T12:26:38;9.40;;;4.80;;
51224;SDS011;37298;42.688;23.312;2023-05-17T12:29:07;10.98;;;5.30;;
51224;SDS011;37298;42.688;23.312;2023-05-17T12:31:35;7.88;;;4.57;;
51224;SDS011;37298;42.688;23.312;2023-05-17T12:34:04;6.95;;;4.15;;
51224;SDS011;37298;42.688;23.312;2023-05-17T12:36:33;6.57;;;4.35;;
51224;SDS011;37298;42.688;23.312;2023-05-17T12:39:02;6.50;;;4.75;;
51224;SDS011;37298;42.688;23.312;2023-05-17T12:41:30;10.85;;;4.10;;
51224;SDS011;37298;42.688;23.312;2023-05-17T12:43:57;9.68;;;4.63;;
51224;SDS011;37298;42.688;23.312;2023-05-17T12:46:24;8.32;;;5.20;;
51224;SDS011;37298;42.688;23.312;2023-05-17T12:51:38;6.93;;;4.57;;
51224;SDS011;37298;42.688;23.312;2023-05-17T12:54:05;12.52;;;5.07;;
51224;SDS011;37298;42.688;23.312;2023-05-17T12:56:31;8.05;;;5.60;;
51224;SDS011;37298;42.688;23.312;2023-05-17T12:59:05;10.13;;;5.57;;
51224;SDS011;37298;42.688;23.312;2023-05-17T13:01:33;12.85;;;4.97;;
51224;SDS011;37298;42.688;23.312;2023-05-17T13:04:00;9.97;;;5.07;;
51224;SDS011;37298;42.688;23.312;2023-05-17T13:06:27;11.48;;;5.03;;
51224;SDS011;37298;42.688;23.312;2023-05-17T13:08:59;9.23;;;5.30;;
51224;SDS011;37298;42.688;23.312;2023-05-17T13:11:26;8.82;;;5.18;;
51224;SDS011;37298;42.688;23.312;2023-05-17T13:13:53;9.98;;;5.25;;
51224;SDS011;37298;42.688;23.312;2023-05-17T13:16:26;11.00;;;5.32;;
51224;SDS011;37298;42.688;23.312;2023-05-17T13:18:53;9.18;;;4.90;;
51224;SDS011;37298;42.688;23.312;2023-05-17T13:21:21;7.95;;;5.05;;
51224;SDS011;37298;42.688;23.312;2023-05-17T13:23:48;11.60;;;4.57;;
51224;SDS011;37298;42.688;23.312;2023-05-17T13:26:17;8.02;;;4.95;;
51224;SDS011;37298;42.688;23.312;2023-05-17T13:28:44;9.70;;;4.82;;
51224;SDS011;37298;42.688;23.312;2023-05-17T13:31:11;8.48;;;4.55;;
51224;SDS011;37298;42.688;23.312;2023-05-17T13:33:38;8.40;;;4.18;;
51224;SDS011;37298;42.688;23.312;2023-05-17T13:36:05;6.90;;;4.43;;
51224;SDS011;37298;42.688;23.312;2023-05-17T13:38:32;6.93;;;4.45;;
51224;SDS011;37298;42.688;23.312;2023-05-17T13:40:59;6.25;;;4.43;;
51224;SDS011;37298;42.688;23.312;2023-05-17T13:43:27;7.40;;;4.47;;
51224;SDS011;37298;42.688;23.312;2023-05-17T13:45:54;16.65;;;3.92;;
51224;SDS011;37298;42.688;23.312;2023-05-17T13:48:23;7.18;;;3.75;;
51224;SDS011;37298;42.688;23.312;2023-05-17T13:50:50;5.68;;;3.33;;
51224;SDS011;37298;42.688;23.312;2023-05-17T13:53:17;6.28;;;3.72;;
51224;SDS011;37298;42.688;23.312;2023-05-17T13:55:44;10.95;;;3.65;;
51224;SDS011;37298;42.688;23.312;2023-05-17T13:58:11;7.40;;;3.65;;
51224;SDS011;37298;42.688;23.312;2023-05-17T14:00:39;9.88;;;3.40;;
51224;SDS011;37298;42.688;23.312;2023-05-17T14:03:09;8.32;;;3.38;;
51224;SDS011;37298;42.688;23.312;2023-05-17T14:05:36;5.22;;;3.28;;
51224;SDS011;37298;42.688;23.312;2023-05-17T14:08:03;6.40;;;3.13;;
51224;SDS011;37298;42.688;23.312;2023-05-17T14:10:30;9.80;;;3.45;;
51224;SDS011;37298;42.688;23.312;2023-05-17T14:12:56;10.15;;;3.70;;
51224;SDS011;37298;42.688;23.312;2023-05-17T14:15:23;6.45;;;3.53;;
51224;SDS011;37298;42.688;23.312;2023-05-17T14:17:53;7.00;;;3.30;;
51224;SDS011;37298;42.688;23.312;2023-05-17T14:20:19;4.65;;;2.63;;
51224;SDS011;37298;42.688;23.312;2023-05-17T14:22:46;9.52;;;3.53;;
51224;SDS011;37298;42.688;23.312;2023-05-17T14:25:13;18.10;;;3.13;;
51224;SDS011;37298;42.688;23.312;2023-05-17T14:27:40;5.30;;;2.97;;
51224;SDS011;37298;42.688;23.312;2023-05-17T14:30:07;7.43;;;2.83;;
51224;SDS011;37298;42.688;23.312;2023-05-17T14:32:34;5.10;;;2.65;;
51224;SDS011;37298;42.688;23.312;2023-05-17T14:35:05;5.55;;;2.92;;
51224;SDS011;37298;42.688;23.312;2023-05-17T14:37:32;4.93;;;2.58;;
51224;SDS011;37298;42.688;23.312;2023-05-17T14:39:59;3.88;;;2.70;;
51224;SDS011;37298;42.688;23.312;2023-05-17T14:42:27;5.13;;;2.92;;